JST471 YWLM-YMML
Flight info
| Callsign | JST471 |
|---|---|
| Flight time | 1h 25m |
| Altitude | 38000 |
| Route | WLM DCT LIMLO H536 OMLAV Q15 WOL H65 LEECE Q29 ML |
| Aircraft | A20N/M-SDE2E3FGHIRWXY/LB1 |
Departure
| Time | 2026-04-18 07:58 |
|---|---|
| Airport | Newcastle Airport (YWLM) |
Arrival
| Time | 2026-04-18 09:24 |
|---|---|
| Airport | Melbourne Airport (YMML) |
| Time | Latitude | Longitude | Altitude | Speed | Heading |
|---|---|---|---|---|---|
| 2026-04-18 07:46 | -32.80371 | 151.84032 | 28 ft | 0 kts | 253° |
| 2026-04-18 07:52 | -32.80370 | 151.84028 | 28 ft | 0 kts | 280° |
| 2026-04-18 07:52 | -32.80366 | 151.84026 | 28 ft | 1 kts | 326° |
| 2026-04-18 07:53 | -32.80355 | 151.84040 | 28 ft | 7 kts | 60° |
| 2026-04-18 07:53 | -32.80394 | 151.84135 | 28 ft | 17 kts | 134° |
| 2026-04-18 07:53 | -32.80463 | 151.84263 | 27 ft | 18 kts | 91° |
| 2026-04-18 07:53 | -32.80416 | 151.84333 | 27 ft | 0 kts | 39° |
| 2026-04-18 07:54 | -32.80415 | 151.84334 | 27 ft | 1 kts | 40° |
| 2026-04-18 07:54 | -32.80394 | 151.84356 | 26 ft | 7 kts | 42° |
| 2026-04-18 07:54 | -32.80348 | 151.84406 | 30 ft | 11 kts | 41° |
| 2026-04-18 07:54 | -32.80275 | 151.84479 | 28 ft | 16 kts | 39° |
| 2026-04-18 07:55 | -32.80208 | 151.84545 | 26 ft | 6 kts | 40° |
| 2026-04-18 07:55 | -32.80191 | 151.84602 | 27 ft | 9 kts | 100° |
| 2026-04-18 07:55 | -32.80236 | 151.84676 | 26 ft | 13 kts | 130° |
| 2026-04-18 07:55 | -32.80303 | 151.84769 | 30 ft | 17 kts | 131° |
| 2026-04-18 07:56 | -32.80383 | 151.84832 | 30 ft | 9 kts | 185° |
| 2026-04-18 07:56 | -32.80393 | 151.84828 | 26 ft | 0 kts | 203° |
| 2026-04-18 07:56 | -32.80408 | 151.84819 | 26 ft | 4 kts | 209° |
| 2026-04-18 07:57 | -32.80444 | 151.84787 | 28 ft | 9 kts | 217° |
| 2026-04-18 07:57 | -32.80477 | 151.84733 | 27 ft | 7 kts | 288° |
| 2026-04-18 07:57 | -32.80460 | 151.84698 | 28 ft | 0 kts | 311° |
| 2026-04-18 07:57 | -32.80459 | 151.84696 | 27 ft | 3 kts | 310° |
| 2026-04-18 07:58 | -32.79858 | 151.83853 | 31 ft | 135 kts | 310° |
| 2026-04-18 07:58 | -32.79152 | 151.82879 | 285 ft | 164 kts | 310° |
| 2026-04-18 07:58 | -32.78390 | 151.81853 | 913 ft | 169 kts | 310° |
| 2026-04-18 07:59 | -32.77604 | 151.80783 | 1490 ft | 182 kts | 308° |
| 2026-04-18 07:59 | -32.76745 | 151.79575 | 1966 ft | 201 kts | 308° |
| 2026-04-18 07:59 | -32.75866 | 151.78159 | 2337 ft | 224 kts | 289° |
| 2026-04-18 07:59 | -32.75648 | 151.76304 | 3024 ft | 232 kts | 255° |
| 2026-04-18 08:00 | -32.76314 | 151.74625 | 4129 ft | 225 kts | 224° |
| 2026-04-18 08:00 | -32.77614 | 151.73644 | 5212 ft | 225 kts | 195° |
| 2026-04-18 08:00 | -32.79187 | 151.73641 | 6252 ft | 234 kts | 166° |
| 2026-04-18 08:00 | -32.80680 | 151.74485 | 7295 ft | 242 kts | 152° |
| 2026-04-18 08:01 | -32.82115 | 151.75546 | 8274 ft | 250 kts | 153° |
| 2026-04-18 08:01 | -32.83637 | 151.76583 | 9270 ft | 254 kts | 157° |
| 2026-04-18 08:01 | -32.85239 | 151.77503 | 10289 ft | 256 kts | 161° |
| 2026-04-18 08:01 | -32.86856 | 151.78418 | 11296 ft | 261 kts | 155° |
| 2026-04-18 08:02 | -32.88337 | 151.79751 | 12234 ft | 274 kts | 142° |
| 2026-04-18 08:02 | -32.89635 | 151.81491 | 12977 ft | 291 kts | 137° |
| 2026-04-18 08:02 | -32.91008 | 151.83406 | 13354 ft | 316 kts | 138° |
| 2026-04-18 08:02 | -32.92730 | 151.85084 | 13684 ft | 327 kts | 158° |
| 2026-04-18 08:03 | -32.94910 | 151.85923 | 14070 ft | 333 kts | 179° |
| 2026-04-18 08:03 | -32.97185 | 151.85960 | 14906 ft | 332 kts | 186° |
| 2026-04-18 08:03 | -32.99506 | 151.85908 | 15802 ft | 335 kts | 185° |
| 2026-04-18 08:03 | -33.01853 | 151.85884 | 16620 ft | 340 kts | 185° |
| 2026-04-18 08:04 | -33.04230 | 151.85895 | 17428 ft | 343 kts | 184° |
| 2026-04-18 08:04 | -33.06630 | 151.85931 | 18221 ft | 347 kts | 184° |
| 2026-04-18 08:04 | -33.09055 | 151.85977 | 18989 ft | 350 kts | 184° |
| 2026-04-18 08:04 | -33.11504 | 151.86026 | 19688 ft | 355 kts | 184° |
| 2026-04-18 08:05 | -33.13983 | 151.86072 | 20405 ft | 358 kts | 184° |
| 2026-04-18 08:05 | -33.16453 | 151.86117 | 21069 ft | 362 kts | 184° |
| 2026-04-18 08:05 | -33.18981 | 151.86160 | 21768 ft | 365 kts | 184° |
| 2026-04-18 08:05 | -33.21532 | 151.86238 | 22442 ft | 370 kts | 181° |
| 2026-04-18 08:06 | -33.24115 | 151.86579 | 23070 ft | 376 kts | 178° |
| 2026-04-18 08:06 | -33.26722 | 151.86996 | 23668 ft | 380 kts | 178° |
| 2026-04-18 08:06 | -33.29354 | 151.87413 | 24270 ft | 383 kts | 178° |
| 2026-04-18 08:06 | -33.32005 | 151.87815 | 24867 ft | 386 kts | 179° |
| 2026-04-18 08:07 | -33.34685 | 151.88202 | 25396 ft | 389 kts | 179° |
| 2026-04-18 08:07 | -33.37383 | 151.88495 | 25930 ft | 388 kts | 186° |
| 2026-04-18 08:07 | -33.40006 | 151.88158 | 26394 ft | 383 kts | 198° |
| 2026-04-18 08:07 | -33.42507 | 151.87138 | 26885 ft | 379 kts | 209° |
| 2026-04-18 08:08 | -33.44762 | 151.85529 | 27395 ft | 377 kts | 217° |
| 2026-04-18 08:08 | -33.46928 | 151.83728 | 27850 ft | 380 kts | 217° |
| 2026-04-18 08:08 | -33.49112 | 151.81925 | 28319 ft | 383 kts | 217° |
| 2026-04-18 08:08 | -33.51325 | 151.80133 | 28717 ft | 386 kts | 216° |
| 2026-04-18 08:09 | -33.53574 | 151.78341 | 29107 ft | 389 kts | 216° |
| 2026-04-18 08:09 | -33.55842 | 151.76552 | 29523 ft | 391 kts | 216° |
| 2026-04-18 08:09 | -33.58124 | 151.74759 | 29915 ft | 394 kts | 216° |
| 2026-04-18 08:09 | -33.60423 | 151.72952 | 30261 ft | 397 kts | 216° |
| 2026-04-18 08:10 | -33.62706 | 151.71155 | 30641 ft | 399 kts | 216° |
| 2026-04-18 08:10 | -33.65030 | 151.69321 | 31003 ft | 401 kts | 216° |
| 2026-04-18 08:10 | -33.67365 | 151.67477 | 31401 ft | 402 kts | 216° |
| 2026-04-18 08:10 | -33.69705 | 151.65626 | 31846 ft | 402 kts | 216° |
| 2026-04-18 08:11 | -33.72031 | 151.63784 | 32318 ft | 401 kts | 216° |
| 2026-04-18 08:11 | -33.74355 | 151.61944 | 32772 ft | 399 kts | 216° |
| 2026-04-18 08:11 | -33.76674 | 151.60106 | 33225 ft | 398 kts | 216° |
| 2026-04-18 08:11 | -33.78983 | 151.58273 | 33641 ft | 397 kts | 216° |
| 2026-04-18 08:12 | -33.81283 | 151.56444 | 34045 ft | 396 kts | 216° |
| 2026-04-18 08:12 | -33.83580 | 151.54617 | 34425 ft | 396 kts | 216° |
| 2026-04-18 08:12 | -33.85844 | 151.52813 | 34770 ft | 395 kts | 217° |
| 2026-04-18 08:12 | -33.88137 | 151.50984 | 35098 ft | 396 kts | 217° |
| 2026-04-18 08:13 | -33.90433 | 151.49152 | 35408 ft | 396 kts | 217° |
| 2026-04-18 08:13 | -33.92726 | 151.47321 | 35751 ft | 395 kts | 217° |
| 2026-04-18 08:13 | -33.95020 | 151.45488 | 36043 ft | 396 kts | 217° |
| 2026-04-18 08:13 | -33.97310 | 151.43657 | 36341 ft | 396 kts | 217° |
| 2026-04-18 08:14 | -33.99606 | 151.41820 | 36597 ft | 396 kts | 217° |
| 2026-04-18 08:14 | -34.01901 | 151.39982 | 36913 ft | 394 kts | 217° |
| 2026-04-18 08:14 | -34.04140 | 151.38188 | 37396 ft | 389 kts | 217° |
| 2026-04-18 08:14 | -34.06381 | 151.36391 | 37738 ft | 387 kts | 217° |
| 2026-04-18 08:15 | -34.08626 | 151.34587 | 37924 ft | 388 kts | 217° |
| 2026-04-18 08:15 | -34.10872 | 151.32779 | 38109 ft | 389 kts | 217° |
| 2026-04-18 08:15 | -34.13125 | 151.30967 | 38155 ft | 389 kts | 217° |
| 2026-04-18 08:16 | -34.17622 | 151.27349 | 38153 ft | 387 kts | 217° |
| 2026-04-18 08:16 | -34.22110 | 151.23731 | 38153 ft | 388 kts | 217° |
| 2026-04-18 08:17 | -34.26567 | 151.20135 | 38155 ft | 388 kts | 217° |
| 2026-04-18 08:17 | -34.31040 | 151.16485 | 38158 ft | 387 kts | 219° |
| 2026-04-18 08:18 | -34.35153 | 151.12362 | 38159 ft | 383 kts | 226° |
| 2026-04-18 08:18 | -34.38699 | 151.07600 | 38156 ft | 380 kts | 234° |
| 2026-04-18 08:19 | -34.41797 | 151.02479 | 38157 ft | 379 kts | 236° |
| 2026-04-18 08:19 | -34.44903 | 150.97307 | 38166 ft | 380 kts | 236° |
| 2026-04-18 08:20 | -34.48020 | 150.92132 | 38158 ft | 380 kts | 236° |
| 2026-04-18 08:20 | -34.51146 | 150.86952 | 38164 ft | 381 kts | 236° |
| 2026-04-18 08:21 | -34.54252 | 150.81800 | 38168 ft | 381 kts | 236° |
| 2026-04-18 08:21 | -34.57377 | 150.76609 | 38164 ft | 381 kts | 236° |
| 2026-04-18 08:22 | -34.60502 | 150.71418 | 38168 ft | 381 kts | 236° |
| 2026-04-18 08:22 | -34.63625 | 150.66218 | 38169 ft | 381 kts | 236° |
| 2026-04-18 08:23 | -34.66746 | 150.61019 | 38167 ft | 381 kts | 236° |
| 2026-04-18 08:23 | -34.69843 | 150.55858 | 38163 ft | 380 kts | 236° |
| 2026-04-18 08:24 | -34.72957 | 150.50661 | 38162 ft | 380 kts | 236° |
| 2026-04-18 08:24 | -34.76063 | 150.45471 | 38153 ft | 379 kts | 236° |
| 2026-04-18 08:25 | -34.79164 | 150.40281 | 38158 ft | 379 kts | 236° |
| 2026-04-18 08:25 | -34.82259 | 150.35091 | 38154 ft | 379 kts | 236° |
| 2026-04-18 08:26 | -34.85327 | 150.29934 | 38149 ft | 379 kts | 236° |
| 2026-04-18 08:26 | -34.88423 | 150.24735 | 38151 ft | 379 kts | 236° |
| 2026-04-18 08:27 | -34.91521 | 150.19524 | 38156 ft | 380 kts | 236° |
| 2026-04-18 08:27 | -34.94618 | 150.14309 | 38153 ft | 379 kts | 236° |
| 2026-04-18 08:28 | -34.97691 | 150.09128 | 38156 ft | 380 kts | 236° |
| 2026-04-18 08:28 | -35.00778 | 150.03906 | 38149 ft | 380 kts | 236° |
| 2026-04-18 08:29 | -35.03868 | 149.98677 | 38160 ft | 380 kts | 236° |
| 2026-04-18 08:29 | -35.06963 | 149.93435 | 38162 ft | 381 kts | 236° |
| 2026-04-18 08:30 | -35.10056 | 149.88185 | 38159 ft | 381 kts | 236° |
| 2026-04-18 08:30 | -35.13131 | 149.82962 | 38152 ft | 381 kts | 236° |
| 2026-04-18 08:31 | -35.16226 | 149.77697 | 38154 ft | 382 kts | 236° |
| 2026-04-18 08:31 | -35.19319 | 149.72423 | 38156 ft | 382 kts | 236° |
| 2026-04-18 08:32 | -35.22409 | 149.67150 | 38160 ft | 381 kts | 236° |
| 2026-04-18 08:32 | -35.25497 | 149.61869 | 38159 ft | 382 kts | 236° |
| 2026-04-18 08:33 | -35.28561 | 149.56626 | 38157 ft | 381 kts | 236° |
| 2026-04-18 08:33 | -35.31640 | 149.51349 | 38152 ft | 381 kts | 236° |
| 2026-04-18 08:34 | -35.34720 | 149.46063 | 38152 ft | 381 kts | 236° |
| 2026-04-18 08:34 | -35.37797 | 149.40769 | 38159 ft | 381 kts | 236° |
| 2026-04-18 08:35 | -35.40873 | 149.35471 | 38149 ft | 382 kts | 236° |
| 2026-04-18 08:35 | -35.43930 | 149.30201 | 38152 ft | 382 kts | 236° |
| 2026-04-18 08:36 | -35.47006 | 149.24887 | 38157 ft | 382 kts | 236° |
| 2026-04-18 08:36 | -35.50086 | 149.19565 | 38160 ft | 383 kts | 236° |
| 2026-04-18 08:37 | -35.53165 | 149.14231 | 38164 ft | 383 kts | 236° |
| 2026-04-18 08:37 | -35.56242 | 149.08889 | 38158 ft | 383 kts | 236° |
| 2026-04-18 08:38 | -35.59296 | 149.03579 | 38156 ft | 383 kts | 236° |
| 2026-04-18 08:38 | -35.62369 | 148.98229 | 38156 ft | 383 kts | 236° |
| 2026-04-18 08:39 | -35.65444 | 148.92872 | 38160 ft | 383 kts | 236° |
| 2026-04-18 08:39 | -35.68517 | 148.87505 | 38155 ft | 384 kts | 236° |
| 2026-04-18 08:40 | -35.71592 | 148.82123 | 38160 ft | 385 kts | 236° |
| 2026-04-18 08:40 | -35.74645 | 148.76775 | 38163 ft | 384 kts | 236° |
| 2026-04-18 08:41 | -35.77721 | 148.71381 | 38152 ft | 385 kts | 236° |
| 2026-04-18 08:41 | -35.80798 | 148.65979 | 38160 ft | 385 kts | 236° |
| 2026-04-18 08:42 | -35.83870 | 148.60579 | 38152 ft | 385 kts | 236° |
| 2026-04-18 08:42 | -35.86938 | 148.55172 | 38157 ft | 385 kts | 236° |
| 2026-04-18 08:43 | -35.89982 | 148.49795 | 38162 ft | 385 kts | 236° |
| 2026-04-18 08:43 | -35.93041 | 148.44366 | 38161 ft | 385 kts | 236° |
| 2026-04-18 08:44 | -35.96096 | 148.38932 | 38160 ft | 386 kts | 236° |
| 2026-04-18 08:44 | -35.99152 | 148.33487 | 38162 ft | 386 kts | 236° |
| 2026-04-18 08:45 | -36.02193 | 148.28067 | 38162 ft | 386 kts | 236° |
| 2026-04-18 08:45 | -36.05257 | 148.22603 | 38170 ft | 387 kts | 236° |
| 2026-04-18 08:46 | -36.08322 | 148.17122 | 38173 ft | 388 kts | 236° |
| 2026-04-18 08:46 | -36.11384 | 148.11630 | 38174 ft | 388 kts | 236° |
| 2026-04-18 08:47 | -36.14452 | 148.06139 | 38176 ft | 388 kts | 236° |
| 2026-04-18 08:47 | -36.17525 | 148.00644 | 38185 ft | 388 kts | 236° |
| 2026-04-18 08:48 | -36.20568 | 147.95197 | 38174 ft | 387 kts | 236° |
| 2026-04-18 08:48 | -36.23623 | 147.89720 | 38176 ft | 386 kts | 236° |
| 2026-04-18 08:49 | -36.26671 | 147.84238 | 38178 ft | 387 kts | 236° |
| 2026-04-18 08:49 | -36.29719 | 147.78748 | 38174 ft | 386 kts | 236° |
| 2026-04-18 08:50 | -36.32748 | 147.73282 | 38180 ft | 388 kts | 236° |
| 2026-04-18 08:50 | -36.35808 | 147.67748 | 38186 ft | 389 kts | 236° |
| 2026-04-18 08:51 | -36.38852 | 147.62225 | 38184 ft | 386 kts | 236° |
| 2026-04-18 08:51 | -36.41891 | 147.56706 | 38182 ft | 387 kts | 236° |
| 2026-04-18 08:52 | -36.44930 | 147.51175 | 38184 ft | 388 kts | 236° |
| 2026-04-18 08:52 | -36.47948 | 147.45673 | 38192 ft | 388 kts | 236° |
| 2026-04-18 08:53 | -36.50983 | 147.40135 | 38198 ft | 387 kts | 236° |
| 2026-04-18 08:53 | -36.54012 | 147.34594 | 38200 ft | 387 kts | 236° |
| 2026-04-18 08:54 | -36.57039 | 147.29050 | 38195 ft | 387 kts | 236° |
| 2026-04-18 08:54 | -36.60041 | 147.23542 | 38200 ft | 387 kts | 236° |
| 2026-04-18 08:55 | -36.63067 | 147.17982 | 38205 ft | 388 kts | 236° |
| 2026-04-18 08:55 | -36.66098 | 147.12404 | 38201 ft | 389 kts | 236° |
| 2026-04-18 08:56 | -36.69130 | 147.06812 | 38209 ft | 390 kts | 237° |
| 2026-04-18 08:56 | -36.72157 | 147.01217 | 38207 ft | 389 kts | 237° |
| 2026-04-18 08:57 | -36.76675 | 146.92852 | 38215 ft | 391 kts | 237° |
| 2026-04-18 08:57 | -36.79703 | 146.87238 | 38217 ft | 389 kts | 237° |
| 2026-04-18 08:58 | -36.82730 | 146.81616 | 38224 ft | 391 kts | 237° |
| 2026-04-18 08:58 | -36.85752 | 146.75991 | 38046 ft | 388 kts | 237° |
| 2026-04-18 08:59 | -36.87248 | 146.73202 | 37554 ft | 386 kts | 236° |
| 2026-04-18 08:59 | -36.88721 | 146.70454 | 36940 ft | 385 kts | 236° |
| 2026-04-18 08:59 | -36.90211 | 146.67671 | 36256 ft | 385 kts | 236° |
| 2026-04-18 08:59 | -36.91700 | 146.64885 | 35475 ft | 387 kts | 236° |
| 2026-04-18 09:00 | -36.93211 | 146.62055 | 34406 ft | 396 kts | 236° |
| 2026-04-18 09:00 | -36.94750 | 146.59170 | 33524 ft | 400 kts | 236° |
| 2026-04-18 09:00 | -36.96294 | 146.56268 | 32665 ft | 402 kts | 236° |
| 2026-04-18 09:00 | -36.97850 | 146.53341 | 31737 ft | 406 kts | 235° |
| 2026-04-18 09:01 | -36.99422 | 146.50384 | 30754 ft | 410 kts | 235° |
| 2026-04-18 09:01 | -37.01002 | 146.47405 | 29920 ft | 411 kts | 235° |
| 2026-04-18 09:01 | -37.02577 | 146.44432 | 29203 ft | 408 kts | 235° |
| 2026-04-18 09:01 | -37.04134 | 146.41492 | 28570 ft | 403 kts | 234° |
| 2026-04-18 09:02 | -37.05679 | 146.38580 | 27892 ft | 400 kts | 234° |
| 2026-04-18 09:02 | -37.07190 | 146.35734 | 27244 ft | 396 kts | 234° |
| 2026-04-18 09:02 | -37.08707 | 146.32877 | 26585 ft | 392 kts | 234° |
| 2026-04-18 09:02 | -37.10210 | 146.30044 | 25960 ft | 388 kts | 234° |
| 2026-04-18 09:03 | -37.11694 | 146.27245 | 25301 ft | 385 kts | 234° |
| 2026-04-18 09:03 | -37.13172 | 146.24459 | 24628 ft | 382 kts | 234° |
| 2026-04-18 09:03 | -37.14635 | 146.21696 | 23998 ft | 378 kts | 234° |
| 2026-04-18 09:03 | -37.16081 | 146.18966 | 23385 ft | 374 kts | 234° |
| 2026-04-18 09:04 | -37.17513 | 146.16259 | 22762 ft | 370 kts | 234° |
| 2026-04-18 09:04 | -37.18930 | 146.13576 | 22114 ft | 367 kts | 234° |
| 2026-04-18 09:04 | -37.20330 | 146.10924 | 21554 ft | 362 kts | 234° |
| 2026-04-18 09:04 | -37.21713 | 146.08301 | 20914 ft | 359 kts | 234° |
| 2026-04-18 09:05 | -37.23067 | 146.05733 | 20320 ft | 356 kts | 234° |
| 2026-04-18 09:05 | -37.24423 | 146.03155 | 19715 ft | 352 kts | 234° |
| 2026-04-18 09:05 | -37.25764 | 146.00604 | 19095 ft | 349 kts | 234° |
| 2026-04-18 09:05 | -37.27093 | 145.98077 | 18507 ft | 345 kts | 234° |
| 2026-04-18 09:06 | -37.28415 | 145.95566 | 17856 ft | 344 kts | 234° |
| 2026-04-18 09:06 | -37.29725 | 145.93072 | 17285 ft | 340 kts | 234° |
| 2026-04-18 09:06 | -37.31022 | 145.90602 | 16693 ft | 337 kts | 234° |
| 2026-04-18 09:06 | -37.32310 | 145.88149 | 16130 ft | 334 kts | 234° |
| 2026-04-18 09:07 | -37.33591 | 145.85717 | 15503 ft | 333 kts | 234° |
| 2026-04-18 09:07 | -37.34864 | 145.83308 | 14933 ft | 330 kts | 234° |
| 2026-04-18 09:07 | -37.36126 | 145.80901 | 14276 ft | 330 kts | 234° |
| 2026-04-18 09:07 | -37.37366 | 145.78535 | 13697 ft | 328 kts | 234° |
| 2026-04-18 09:08 | -37.38613 | 145.76158 | 13174 ft | 324 kts | 234° |
| 2026-04-18 09:08 | -37.39851 | 145.73800 | 12561 ft | 322 kts | 234° |
| 2026-04-18 09:08 | -37.41082 | 145.71458 | 11990 ft | 319 kts | 234° |
| 2026-04-18 09:08 | -37.42300 | 145.69128 | 11424 ft | 318 kts | 235° |
| 2026-04-18 09:09 | -37.43511 | 145.66807 | 10803 ft | 317 kts | 235° |
| 2026-04-18 09:09 | -37.44523 | 145.64337 | 10249 ft | 318 kts | 249° |
| 2026-04-18 09:09 | -37.44982 | 145.61670 | 10077 ft | 307 kts | 262° |
| 2026-04-18 09:09 | -37.45006 | 145.59033 | 9950 ft | 296 kts | 269° |
| 2026-04-18 09:10 | -37.44949 | 145.56540 | 9797 ft | 283 kts | 269° |
| 2026-04-18 09:10 | -37.44900 | 145.54085 | 9452 ft | 278 kts | 268° |
| 2026-04-18 09:10 | -37.44866 | 145.51643 | 8942 ft | 279 kts | 268° |
| 2026-04-18 09:10 | -37.44840 | 145.49196 | 8503 ft | 279 kts | 268° |
| 2026-04-18 09:11 | -37.44820 | 145.46769 | 8111 ft | 277 kts | 268° |
| 2026-04-18 09:11 | -37.44802 | 145.44358 | 7715 ft | 274 kts | 268° |
| 2026-04-18 09:11 | -37.44784 | 145.41964 | 7323 ft | 273 kts | 269° |
| 2026-04-18 09:11 | -37.44764 | 145.39591 | 6917 ft | 271 kts | 269° |
| 2026-04-18 09:12 | -37.44744 | 145.37227 | 6503 ft | 270 kts | 269° |
| 2026-04-18 09:12 | -37.44725 | 145.34876 | 6131 ft | 267 kts | 269° |
| 2026-04-18 09:12 | -37.44704 | 145.32578 | 5734 ft | 266 kts | 269° |
| 2026-04-18 09:12 | -37.44680 | 145.30257 | 5350 ft | 264 kts | 269° |
| 2026-04-18 09:13 | -37.44652 | 145.27947 | 4956 ft | 263 kts | 269° |
| 2026-04-18 09:13 | -37.44622 | 145.25648 | 4564 ft | 262 kts | 269° |
| 2026-04-18 09:13 | -37.44590 | 145.23358 | 4177 ft | 261 kts | 269° |
| 2026-04-18 09:13 | -37.44558 | 145.21077 | 3781 ft | 260 kts | 269° |
| 2026-04-18 09:14 | -37.44525 | 145.18807 | 3408 ft | 259 kts | 269° |
| 2026-04-18 09:14 | -37.44497 | 145.16554 | 3168 ft | 255 kts | 270° |
| 2026-04-18 09:14 | -37.44469 | 145.14282 | 3075 ft | 262 kts | 270° |
| 2026-04-18 09:14 | -37.44441 | 145.11992 | 3004 ft | 261 kts | 270° |
| 2026-04-18 09:15 | -37.44409 | 145.09741 | 3003 ft | 262 kts | 269° |
| 2026-04-18 09:15 | -37.44373 | 145.07492 | 2999 ft | 250 kts | 269° |
| 2026-04-18 09:15 | -37.44337 | 145.05375 | 2997 ft | 235 kts | 269° |
| 2026-04-18 09:15 | -37.44302 | 145.03377 | 3001 ft | 226 kts | 269° |
| 2026-04-18 09:16 | -37.44270 | 145.01372 | 2999 ft | 229 kts | 269° |
| 2026-04-18 09:16 | -37.44240 | 144.99381 | 3001 ft | 228 kts | 269° |
| 2026-04-18 09:16 | -37.44209 | 144.97388 | 3000 ft | 228 kts | 269° |
| 2026-04-18 09:16 | -37.44178 | 144.95401 | 2998 ft | 223 kts | 269° |
| 2026-04-18 09:17 | -37.44243 | 144.93521 | 2998 ft | 208 kts | 258° |
| 2026-04-18 09:17 | -37.44489 | 144.91785 | 2999 ft | 200 kts | 257° |
| 2026-04-18 09:17 | -37.44748 | 144.90068 | 3000 ft | 202 kts | 257° |
| 2026-04-18 09:17 | -37.44999 | 144.88376 | 3003 ft | 189 kts | 257° |
| 2026-04-18 09:18 | -37.45234 | 144.86756 | 3000 ft | 188 kts | 257° |
| 2026-04-18 09:18 | -37.45470 | 144.85126 | 3000 ft | 190 kts | 257° |
| 2026-04-18 09:18 | -37.45695 | 144.83545 | 2990 ft | 169 kts | 257° |
| 2026-04-18 09:18 | -37.45887 | 144.82161 | 3023 ft | 163 kts | 257° |
| 2026-04-18 09:19 | -37.46200 | 144.80801 | 2996 ft | 161 kts | 234° |
| 2026-04-18 09:19 | -37.47101 | 144.80030 | 3002 ft | 160 kts | 193° |
| 2026-04-18 09:19 | -37.48199 | 144.80059 | 3002 ft | 160 kts | 166° |
| 2026-04-18 09:19 | -37.48911 | 144.80297 | 3000 ft | 160 kts | 165° |
| 2026-04-18 09:20 | -37.50345 | 144.80703 | 3005 ft | 160 kts | 170° |
| 2026-04-18 09:20 | -37.51443 | 144.80922 | 2999 ft | 160 kts | 172° |
| 2026-04-18 09:20 | -37.52544 | 144.81124 | 2930 ft | 160 kts | 172° |
| 2026-04-18 09:20 | -37.53642 | 144.81327 | 2737 ft | 159 kts | 173° |
| 2026-04-18 09:21 | -37.54735 | 144.81531 | 2521 ft | 158 kts | 173° |
| 2026-04-18 09:21 | -37.55456 | 144.81664 | 2387 ft | 158 kts | 173° |
| 2026-04-18 09:21 | -37.56907 | 144.81935 | 2108 ft | 157 kts | 173° |
| 2026-04-18 09:21 | -37.57625 | 144.82069 | 1971 ft | 158 kts | 173° |
| 2026-04-18 09:22 | -37.58700 | 144.82268 | 1767 ft | 157 kts | 173° |
| 2026-04-18 09:22 | -37.59782 | 144.82471 | 1553 ft | 156 kts | 173° |
| 2026-04-18 09:22 | -37.61205 | 144.82736 | 1279 ft | 156 kts | 173° |
| 2026-04-18 09:22 | -37.62277 | 144.82934 | 1073 ft | 155 kts | 173° |
| 2026-04-18 09:23 | -37.62999 | 144.83069 | 930 ft | 155 kts | 173° |
| 2026-04-18 09:23 | -37.64067 | 144.83267 | 725 ft | 155 kts | 173° |
| 2026-04-18 09:23 | -37.65487 | 144.83518 | 454 ft | 155 kts | 173° |
| 2026-04-18 09:23 | -37.66442 | 144.83700 | 407 ft | 111 kts | 171° |
| 2026-04-18 09:24 | -37.66859 | 144.83777 | 392 ft | 72 kts | 172° |
| 2026-04-18 09:24 | -37.67260 | 144.83853 | 377 ft | 48 kts | 171° |
| 2026-04-18 09:24 | -37.67585 | 144.83913 | 364 ft | 37 kts | 172° |
| 2026-04-18 09:24 | -37.67749 | 144.83942 | 363 ft | 26 kts | 171° |
| 2026-04-18 09:25 | -37.67872 | 144.84056 | 364 ft | 20 kts | 104° |
| 2026-04-18 09:25 | -37.67872 | 144.84123 | 358 ft | 0 kts | 81° |
| 2026-04-18 09:27 | -37.67870 | 144.84134 | 365 ft | 5 kts | 81° |
| 2026-04-18 09:27 | -37.67861 | 144.84216 | 361 ft | 12 kts | 81° |
| 2026-04-18 09:27 | -37.67836 | 144.84318 | 363 ft | 13 kts | 50° |
| 2026-04-18 09:27 | -37.67757 | 144.84367 | 366 ft | 13 kts | 6° |
| 2026-04-18 09:28 | -37.67667 | 144.84355 | 370 ft | 7 kts | 351° |
| 2026-04-18 09:28 | -37.67658 | 144.84353 | 370 ft | 3 kts | 352° |
| 2026-04-18 09:28 | -37.67611 | 144.84345 | 372 ft | 10 kts | 352° |
| 2026-04-18 09:28 | -37.67532 | 144.84332 | 374 ft | 13 kts | 352° |
| 2026-04-18 09:29 | -37.67446 | 144.84349 | 377 ft | 13 kts | 46° |
| 2026-04-18 09:29 | -37.67391 | 144.84410 | 379 ft | 6 kts | 37° |
| 2026-04-18 09:29 | -37.67381 | 144.84419 | 380 ft | 0 kts | 36° |